Time;durP1;ratioP1;P1;durP2;ratioP2;P2;SDS_P1;SDS_P2;PMS_P1;PMS_P2;Temp;Humidity;BMP_temperature;BMP_pressure;BME280_temperature;BME280_humidity;BME280_pressure;Samples;Min_cycle;Max_cycle;Signal;HPM_P1;HPM_P2
2021/12/02 00:05:16;;;;;;;36.97;35.00;;;;;;;4.54;100.00;100867.34;1979896;72;33027;-73
2021/12/02 00:11:00;;;;;;;36.70;34.60;;;;;;;4.52;100.00;100875.02;2013013;71;32820;-75
2021/12/02 00:16:53;;;;;;;36.80;34.60;;;;;;;4.50;100.00;100895.03;2014409;70;32858;-75
2021/12/02 00:22:40;;;;;;;35.83;33.80;;;;;;;4.44;100.00;100892.44;2014787;71;32793;-75
2021/12/02 00:28:26;;;;;;;35.33;33.33;;;;;;;4.38;100.00;100906.61;2013020;71;33362;-74
2021/12/02 00:34:13;;;;;;;36.30;34.37;;;;;;;4.39;100.00;100901.42;2009280;71;32833;-74
2021/12/02 00:39:58;;;;;;;36.00;34.03;;;;;;;4.42;100.00;100899.55;1991427;71;32742;-74
2021/12/02 00:45:43;;;;;;;36.23;33.93;;;;;;;4.41;100.00;100902.00;1996991;71;32840;-75
2021/12/02 00:51:29;;;;;;;39.90;37.50;;;;;;;4.34;100.00;100899.09;2014610;71;32822;-73
2021/12/02 00:57:16;;;;;;;37.50;35.40;;;;;;;4.27;100.00;100906.66;2003948;71;32904;-74
2021/12/02 01:03:03;;;;;;;39.37;37.07;;;;;;;4.19;100.00;100914.74;2018347;71;33252;-73
2021/12/02 01:08:47;;;;;;;37.00;34.80;;;;;;;4.12;100.00;100920.36;1994803;71;32818;-74
2021/12/02 01:14:31;;;;;;;39.20;37.20;;;;;;;4.18;100.00;100916.34;2013825;71;32787;-74
2021/12/02 01:20:18;;;;;;;37.77;35.30;;;;;;;3.96;100.00;100909.27;1994987;71;32920;-73
2021/12/02 01:26:06;;;;;;;39.10;36.80;;;;;;;3.94;100.00;100916.89;2011163;71;32820;-73
2021/12/02 01:31:57;;;;;;;40.43;38.03;;;;;;;3.89;100.00;100920.92;1998313;71;32815;-74
2021/12/02 01:37:43;;;;;;;38.83;36.60;;;;;;;3.89;100.00;100923.67;1991354;71;32755;-73
2021/12/02 01:43:45;;;;;;;40.93;38.70;;;;;;;3.87;100.00;100932.14;2005518;71;32944;-73
2021/12/02 01:49:35;;;;;;;38.77;36.77;;;;;;;3.76;100.00;100933.00;1994869;71;32823;-74
2021/12/02 01:55:20;;;;;;;38.10;36.00;;;;;;;3.83;100.00;100946.06;2007978;71;32819;-73
2021/12/02 02:01:09;;;;;;;40.10;37.90;;;;;;;3.83;100.00;100958.96;2008103;71;33227;-75
2021/12/02 02:06:57;;;;;;;41.57;39.17;;;;;;;3.77;100.00;100949.75;2018346;71;33385;-75
2021/12/02 02:12:42;;;;;;;40.93;38.83;;;;;;;3.76;100.00;100963.75;2006099;71;32819;-74
2021/12/02 02:18:27;;;;;;;39.93;37.63;;;;;;;3.73;100.00;100955.42;2016561;71;33413;-75
2021/12/02 02:24:14;;;;;;;38.93;36.67;;;;;;;3.75;100.00;100956.57;2018332;71;33335;-75
2021/12/02 02:29:59;;;;;;;41.67;39.47;;;;;;;3.74;100.00;100966.72;2006196;71;32805;-74
2021/12/02 02:35:44;;;;;;;39.33;37.13;;;;;;;3.70;100.00;100971.55;1991360;71;32960;-75
2021/12/02 02:41:32;;;;;;;34.60;32.80;;;;;;;3.76;100.00;100973.36;2000481;71;32906;-75
2021/12/02 02:47:17;;;;;;;36.00;34.00;;;;;;;3.76;100.00;100984.35;2003752;71;32814;-74
2021/12/02 02:53:08;;;;;;;35.80;33.90;;;;;;;3.83;100.00;100985.06;2014766;71;33329;-74
2021/12/02 02:59:09;;;;;;;35.20;33.30;;;;;;;3.84;100.00;100986.21;2000526;71;32853;-74
2021/12/02 03:04:55;;;;;;;33.23;31.53;;;;;;;3.80;100.00;100981.42;2000422;71;32826;-76
2021/12/02 03:10:43;;;;;;;33.70;31.80;;;;;;;3.81;100.00;100981.17;1991416;71;32830;-75
2021/12/02 03:22:27;;;;;;;33.33;31.43;;;;;;;3.94;100.00;100985.59;1998448;71;33347;-74
2021/12/02 03:28:11;;;;;;;32.90;30.90;;;;;;;3.86;100.00;100981.83;2009652;71;32816;-74
2021/12/02 03:33:56;;;;;;;31.70;30.10;;;;;;;3.98;100.00;100979.39;2016405;71;32949;-74
2021/12/02 03:39:40;;;;;;;31.10;29.50;;;;;;;4.00;100.00;100975.03;2018256;71;33279;-75
2021/12/02 03:45:26;;;;;;;32.07;30.10;;;;;;;4.01;100.00;100979.46;2016890;71;33334;-76
2021/12/02 03:51:12;;;;;;;31.43;29.77;;;;;;;4.02;100.00;100979.20;1998882;71;32749;-76
2021/12/02 03:56:57;;;;;;;32.03;30.43;;;;;;;4.05;100.00;100987.53;2010018;71;32840;-74
2021/12/02 04:02:41;;;;;;;29.67;27.87;;;;;;;3.98;100.00;100984.88;2007538;71;32930;-74
2021/12/02 04:08:29;;;;;;;29.20;27.70;;;;;;;4.03;100.00;100988.30;2006015;71;33322;-74
2021/12/02 04:14:17;;;;;;;29.50;27.97;;;;;;;4.04;100.00;100988.59;2009781;71;32736;-75
2021/12/02 04:20:00;;;;;;;32.43;30.57;;;;;;;4.03;100.00;101002.03;2012836;71;32833;-75
2021/12/02 04:25:44;;;;;;;33.73;31.83;;;;;;;4.00;100.00;100993.73;2000884;71;32818;-75
2021/12/02 04:31:28;;;;;;;32.80;31.00;;;;;;;3.97;100.00;100992.02;1996775;71;33208;-73
2021/12/02 04:37:12;;;;;;;35.80;33.90;;;;;;;4.02;100.00;100988.02;2000477;71;32739;-75
2021/12/02 04:42:56;;;;;;;32.27;30.37;;;;;;;4.01;100.00;100983.05;2018384;71;33237;-74
2021/12/02 04:48:40;;;;;;;33.33;31.43;;;;;;;3.96;100.00;100988.95;2013339;71;32805;-74
2021/12/02 04:54:24;;;;;;;34.37;32.47;;;;;;;4.01;100.00;100984.96;2002234;70;33376;-74
2021/12/02 05:00:09;;;;;;;35.80;33.80;;;;;;;3.91;100.00;100969.06;1991248;71;32747;-74
2021/12/02 05:05:56;;;;;;;34.30;32.43;;;;;;;3.89;100.00;100980.00;2014644;71;32791;-75
2021/12/02 05:11:42;;;;;;;36.73;34.73;;;;;;;3.89;100.00;100979.47;2004149;71;32789;-75
2021/12/02 05:17:26;;;;;;;36.40;34.10;;;;;;;3.89;100.00;100992.37;2009261;71;32869;-73
2021/12/02 05:23:10;;;;;;;35.20;33.33;;;;;;;3.80;100.00;100991.88;2016296;71;32809;-76
2021/12/02 05:28:56;;;;;;;39.17;36.60;;;;;;;3.93;100.00;101005.93;2007841;71;33230;-74
2021/12/02 05:34:40;;;;;;;37.77;35.40;;;;;;;3.91;100.00;101001.20;2014874;71;33310;-74
2021/12/02 05:40:24;;;;;;;39.73;37.43;;;;;;;3.74;100.00;101001.06;1998247;71;33348;-75
2021/12/02 05:46:09;;;;;;;39.00;36.80;;;;;;;3.81;100.00;101018.26;2018405;71;32983;-76
2021/12/02 05:51:53;;;;;;;41.07;38.67;;;;;;;3.74;100.00;101024.94;1994854;71;33286;-73
2021/12/02 05:57:37;;;;;;;40.90;38.60;;;;;;;3.80;100.00;101040.49;2014601;71;32899;-73
2021/12/02 06:03:22;;;;;;;40.87;38.57;;;;;;;3.90;100.00;101041.57;1991351;71;33354;-73
2021/12/02 06:09:07;;;;;;;44.00;41.30;;;;;;;3.89;100.00;101064.65;2003951;71;32850;-74
2021/12/02 06:14:51;;;;;;;43.50;41.00;;;;;;;3.97;100.00;101085.45;2016435;71;32836;-75
2021/12/02 06:20:35;;;;;;;37.43;35.23;;;;;;;4.05;100.00;101073.57;2000024;71;33392;-75
2021/12/02 06:26:19;;;;;;;43.37;40.87;;;;;;;4.28;100.00;101089.80;2011819;71;32770;-73
2021/12/02 06:32:04;;;;;;;53.43;50.23;;;;;;;3.92;100.00;101082.03;2011616;71;33309;-74
2021/12/02 06:37:49;;;;;;;53.90;50.23;;;;;;;3.61;100.00;101064.45;2016668;71;33406;-75
2021/12/02 06:46:22;;;;;;;53.27;49.87;;;;;;;3.50;100.00;101071.59;2060873;69;32881;-74
2021/12/02 06:48:52;;;;;;;53.57;49.80;;;;;;;3.50;100.00;101078.98;2018816;70;26732;-74
2021/12/02 06:51:23;;;;;;;51.50;48.13;;;;;;;3.46;100.00;101081.90;2010621;70;26706;-74
2021/12/02 06:53:53;;;;;;;53.60;49.90;;;;;;;3.37;100.00;101103.34;2016489;70;26200;-74
2021/12/02 06:56:23;;;;;;;53.03;49.53;;;;;;;3.35;100.00;101098.61;2018118;70;26206;-75
2021/12/02 06:58:54;;;;;;;53.50;49.90;;;;;;;3.43;100.00;101112.02;2015986;70;26269;-75
2021/12/02 07:01:24;;;;;;;51.47;47.90;;;;;;;3.36;100.00;101104.94;2018993;70;26268;-74
2021/12/02 07:03:54;;;;;;;52.83;49.23;;;;;;;3.28;100.00;101113.50;1991712;70;26433;-75
2021/12/02 07:06:24;;;;;;;53.00;49.23;;;;;;;3.30;100.00;101109.44;1915483;74;26226;-74
2021/12/02 07:08:54;;;;;;;53.23;49.73;;;;;;;3.10;100.00;101112.45;1908395;75;26719;-76
2021/12/02 07:11:24;;;;;;;53.37;49.87;;;;;;;3.21;100.00;101110.29;1894167;74;26239;-74
2021/12/02 07:14:00;;;;;;;52.77;49.30;;;;;;;3.11;100.00;101099.57;1981931;72;26201;-73
2021/12/02 07:16:26;;;;;;;52.37;48.90;;;;;;;3.07;100.00;101103.84;1981945;72;26659;-74
2021/12/02 07:18:57;;;;;;;50.00;46.70;;;;;;;2.96;100.00;101099.11;1931290;73;26220;-74
2021/12/02 07:21:27;;;;;;;52.73;49.23;;;;;;;3.02;100.00;101107.80;1929328;74;26704;-74
2021/12/02 07:23:58;;;;;;;51.40;47.80;;;;;;;3.06;100.00;101117.25;1894331;73;26262;-74
2021/12/02 07:26:28;;;;;;;53.83;50.33;;;;;;;3.12;100.00;101112.23;1912404;74;26276;-75
2021/12/02 07:28:58;;;;;;;54.83;51.03;;;;;;;3.09;100.00;101116.78;1981292;72;26199;-76
2021/12/02 07:31:30;;;;;;;54.80;51.20;;;;;;;3.06;100.00;101118.09;1893233;74;26293;-74
2021/12/02 07:34:02;;;;;;;52.70;49.17;;;;;;;3.12;100.00;101125.95;1970748;72;26697;-74
2021/12/02 07:36:33;;;;;;;53.10;49.47;;;;;;;3.10;100.00;101126.17;1994897;72;26179;-74
2021/12/02 07:39:07;;;;;;;50.77;47.67;;;;;;;3.09;100.00;101125.86;1973770;72;26200;-74
2021/12/02 07:41:39;;;;;;;51.97;48.33;;;;;;;3.04;100.00;101132.56;1937706;74;26619;-74
2021/12/02 07:44:10;;;;;;;51.33;47.80;;;;;;;3.04;100.00;101139.95;1935323;74;26530;-74
2021/12/02 07:46:41;;;;;;;53.03;49.23;;;;;;;3.09;100.00;101136.84;1941217;72;26257;-73
2021/12/02 07:49:14;;;;;;;52.70;49.23;;;;;;;3.05;100.00;101127.39;1931606;74;26290;-74
2021/12/02 07:51:46;;;;;;;52.23;48.80;;;;;;;3.16;100.00;101139.52;1937525;74;26199;-74
2021/12/02 07:57:33;;;;;;;53.70;50.03;;;;;;;3.18;100.00;101127.77;2006171;71;33488;-74
2021/12/02 08:03:20;;;;;;;53.60;50.20;;;;;;;3.06;100.00;101140.05;2014845;71;33296;-76
2021/12/02 08:09:05;;;;;;;53.97;50.50;;;;;;;3.05;100.00;101147.12;1996905;71;33346;-75
2021/12/02 08:14:50;;;;;;;51.67;48.33;;;;;;;2.93;100.00;101147.59;2016494;71;32840;-73
2021/12/02 08:20:35;;;;;;;53.47;50.10;;;;;;;3.00;100.00;101160.69;2009742;71;32825;-75
2021/12/02 08:26:19;;;;;;;52.47;49.07;;;;;;;3.10;100.00;101173.36;2002314;70;32796;-77
2021/12/02 08:32:04;;;;;;;51.83;48.40;;;;;;;3.21;100.00;101172.05;2009799;71;32784;-77
2021/12/02 08:37:52;;;;;;;51.50;48.37;;;;;;;3.35;100.00;101174.64;2016652;71;32857;-77
2021/12/02 08:43:36;;;;;;;50.93;47.40;;;;;;;3.38;100.00;101172.27;2005987;71;32803;-75
2021/12/02 08:49:22;;;;;;;51.10;47.90;;;;;;;3.42;100.00;101176.80;1991205;71;32836;-75
2021/12/02 08:55:09;;;;;;;48.80;45.67;;;;;;;3.57;100.00;101197.28;1998749;71;32777;-75
2021/12/02 09:00:53;;;;;;;48.30;45.30;;;;;;;3.61;100.00;101186.14;2004162;71;32979;-75
2021/12/02 09:06:37;;;;;;;49.97;46.40;;;;;;;3.67;100.00;101196.74;1996932;71;33370;-75
2021/12/02 09:12:23;;;;;;;48.73;45.77;;;;;;;3.77;100.00;101202.50;2003879;71;33385;-75
2021/12/02 09:18:07;;;;;;;46.73;43.80;;;;;;;3.86;100.00;101198.90;1996929;71;33238;-76
2021/12/02 09:23:52;;;;;;;46.70;44.10;;;;;;;3.96;100.00;101208.28;1995263;71;33328;-75
2021/12/02 09:29:36;;;;;;;41.73;39.43;;;;;;;4.02;100.00;101201.02;2004046;71;32828;-76
2021/12/02 09:35:23;;;;;;;40.57;38.17;;;;;;;3.95;100.00;101174.98;2013127;71;32921;-75
2021/12/02 09:41:08;;;;;;;38.37;36.20;;;;;;;4.20;100.00;101200.09;2014701;71;33346;-75
2021/12/02 09:46:53;;;;;;;34.87;33.13;;;;;;;4.27;100.00;101201.69;2005976;71;33377;-77
2021/12/02 09:52:39;;;;;;;34.77;32.53;;;;;;;4.27;100.00;101200.31;1996850;71;32840;-76
2021/12/02 09:58:26;;;;;;;32.03;30.03;;;;;;;4.39;100.00;101210.80;2013471;71;32928;-77
2021/12/02 10:04:12;;;;;;;28.57;27.17;;;;;;;4.47;100.00;101212.36;2014873;71;33386;-76
2021/12/02 10:10:03;;;;;;;31.33;29.63;;;;;;;4.54;100.00;101213.92;2009824;71;33237;-76
2021/12/02 10:15:54;;;;;;;31.70;30.00;;;;;;;4.58;100.00;101211.00;2016367;71;33376;-76
2021/12/02 10:21:38;;;;;;;28.00;26.50;;;;;;;4.66;100.00;101211.22;2003672;71;32896;-75
2021/12/02 10:27:23;;;;;;;26.50;25.13;;;;;;;4.69;100.00;101219.52;2003682;71;32799;-77
2021/12/02 10:33:09;;;;;;;27.23;25.83;;;;;;;4.72;100.00;101211.62;2005945;71;32939;-76
2021/12/02 10:39:00;;;;;;;25.23;23.83;;;;;;;4.75;100.00;101204.83;2011539;71;33326;-76
2021/12/02 10:44:46;;;;;;;26.57;25.07;;;;;;;4.86;100.00;101203.98;2005519;71;33397;-76
2021/12/02 10:50:39;;;;;;;26.40;24.97;;;;;;;4.99;100.00;101208.70;2014656;71;33421;-76
2021/12/02 10:56:33;;;;;;;26.80;25.40;;;;;;;4.96;100.00;101196.78;2015123;71;32910;-75
2021/12/02 11:02:48;;;;;;;25.20;23.97;;;;;;;5.12;100.00;101209.53;2000172;71;33352;-76
2021/12/02 11:08:36;;;;;;;25.63;24.17;;;;;;;5.19;100.00;101222.63;2000660;71;32768;-75
2021/12/02 11:14:21;;;;;;;26.30;24.90;;;;;;;5.10;100.00;101204.80;2016592;71;32911;-75
2021/12/02 11:20:09;;;;;;;27.00;25.30;;;;;;;5.30;100.00;101208.03;2014854;71;32838;-77
2021/12/02 11:25:58;;;;;;;25.30;23.83;;;;;;;5.36;100.00;101211.17;2014851;71;33347;-76
2021/12/02 11:31:45;;;;;;;25.43;24.23;;;;;;;5.39;100.00;101207.39;2013025;71;32859;-75
2021/12/02 11:37:29;;;;;;;25.47;24.20;;;;;;;5.37;100.00;101215.08;2005414;71;32897;-75
2021/12/02 11:43:18;;;;;;;24.30;23.00;;;;;;;5.42;100.00;101215.73;2000602;71;33338;-74
2021/12/02 11:49:03;;;;;;;24.27;23.00;;;;;;;5.48;100.00;101220.25;1995094;71;32844;-75
2021/12/02 11:54:48;;;;;;;23.93;22.77;;;;;;;5.55;100.00;101237.50;1998716;71;33354;-75
2021/12/02 12:00:33;;;;;;;23.80;22.70;;;;;;;5.59;100.00;101224.91;2009789;71;33374;-76
2021/12/02 12:06:25;;;;;;;24.47;23.17;;;;;;;5.72;100.00;101222.42;1991311;71;32828;-75
2021/12/02 12:12:11;;;;;;;24.13;22.83;;;;;;;5.78;100.00;101226.41;2012966;71;32932;-75
2021/12/02 12:17:56;;;;;;;23.50;22.30;;;;;;;5.83;100.00;101241.67;1995187;71;32926;-73
2021/12/02 12:24:15;;;;;;;22.20;21.20;;;;;;;5.87;100.00;101228.27;2014945;71;33329;-76
2021/12/02 12:30:24;;;;;;;23.27;22.20;;;;;;;5.95;100.00;101235.61;2000020;70;32832;-75
2021/12/02 12:36:22;;;;;;;23.13;22.03;;;;;;;6.01;100.00;101237.09;1998361;71;33419;-74
2021/12/02 12:42:25;;;;;;;23.30;22.20;;;;;;;6.00;100.00;101244.52;2016391;71;32837;-77
2021/12/02 12:48:13;;;;;;;23.73;22.43;;;;;;;6.08;100.00;101246.89;2016427;71;33411;-74
2021/12/02 12:54:00;;;;;;;24.77;23.37;;;;;;;6.14;100.00;101247.30;1994712;71;33400;-74
2021/12/02 12:59:55;;;;;;;23.87;22.47;;;;;;;6.21;100.00;101258.16;2016454;71;33338;-77
2021/12/02 13:05:50;;;;;;;23.87;22.63;;;;;;;6.18;100.00;101252.61;1977390;72;33007;-75
2021/12/02 13:11:36;;;;;;;24.77;23.47;;;;;;;6.22;100.00;101252.95;1995097;71;32952;-75
2021/12/02 13:17:44;;;;;;;23.33;21.90;;;;;;;6.28;100.00;101243.16;2009349;71;32897;-75
2021/12/02 13:23:43;;;;;;;25.23;23.83;;;;;;;6.28;100.00;101226.61;1991364;70;33305;-75
2021/12/02 13:29:37;;;;;;;23.57;22.30;;;;;;;6.36;100.00;101226.20;2009760;71;33283;-76
2021/12/02 13:32:09;;;;;;;23.07;21.77;;;;;;;6.31;100.00;101231.62;1958612;72;26773;-76
2021/12/02 13:38:03;;;;;;;24.60;23.10;;;;;;;6.32;100.00;101222.27;2012974;71;32925;-76
2021/12/02 13:43:58;;;;;;;23.73;22.43;;;;;;;6.28;100.00;101242.33;2004142;71;32793;-75
2021/12/02 13:50:16;;;;;;;27.83;25.90;;;;;;;6.26;100.00;101256.89;2000557;71;33260;-74
2021/12/02 13:55:56;;;;;;;25.27;24.03;;;;;;;6.28;100.00;101274.89;2018274;71;32973;-75
2021/12/02 14:01:59;;;;;;;25.00;23.90;;;;;;;6.27;100.00;101284.23;2001940;71;32949;-75
2021/12/02 14:07:46;;;;;;;23.73;22.53;;;;;;;6.32;100.00;101285.72;2005613;71;32913;-77
2021/12/02 14:13:31;;;;;;;25.80;24.40;;;;;;;6.31;100.00;101314.39;2003912;71;33344;-75
2021/12/02 14:19:16;;;;;;;29.27;27.37;;;;;;;6.21;100.00;101330.72;2016727;71;32955;-78
2021/12/02 14:25:00;;;;;;;24.80;23.57;;;;;;;6.18;100.00;101345.55;1998361;71;32996;-76
2021/12/02 14:30:46;;;;;;;23.90;22.60;;;;;;;6.17;100.00;101348.84;2009271;71;33040;-75
2021/12/02 14:36:33;;;;;;;25.77;24.40;;;;;;;6.16;100.00;101344.41;2013041;71;33369;-75
2021/12/02 14:42:23;;;;;;;25.47;24.10;;;;;;;6.14;100.00;101356.23;2016388;71;33390;-74
2021/12/02 14:48:19;;;;;;;26.67;25.27;;;;;;;6.12;100.00;101369.42;2011614;71;33322;-75
2021/12/02 14:54:15;;;;;;;26.97;25.40;;;;;;;6.20;100.00;101368.23;2014916;71;32818;-76
2021/12/02 15:00:03;;;;;;;27.63;25.93;;;;;;;6.18;100.00;101368.45;2014664;70;33288;-75
2021/12/02 15:05:47;;;;;;;26.33;24.90;;;;;;;6.08;100.00;101378.42;1977507;72;32880;-74
2021/12/02 15:11:34;;;;;;;25.47;23.77;;;;;;;5.93;100.00;101378.94;2005460;71;32868;-76
2021/12/02 15:17:21;;;;;;;27.80;26.00;;;;;;;5.89;100.00;101383.27;2014712;71;32832;-74
2021/12/02 15:23:10;;;;;;;24.73;22.93;;;;;;;5.74;100.00;101378.19;2012999;70;32804;-76
2021/12/02 15:28:55;;;;;;;29.50;27.63;;;;;;;5.67;100.00;101382.16;2016516;71;32855;-75
2021/12/02 15:34:41;;;;;;;28.20;26.60;;;;;;;5.47;100.00;101393.55;2009776;71;32742;-76
2021/12/02 15:40:29;;;;;;;28.63;26.90;;;;;;;5.48;100.00;101389.69;2014675;71;32802;-77
2021/12/02 15:46:17;;;;;;;28.27;26.47;;;;;;;5.33;100.00;101401.19;2003623;71;33364;-75
2021/12/02 15:52:06;;;;;;;27.17;25.40;;;;;;;5.20;100.00;101415.70;2006060;71;33303;-76
2021/12/02 15:57:51;;;;;;;29.00;27.30;;;;;;;5.23;100.00;101449.65;2014636;71;33369;-74
2021/12/02 16:03:37;;;;;;;34.37;32.20;;;;;;;4.95;100.00;101468.19;2000520;71;33212;-76
2021/12/02 16:09:28;;;;;;;34.00;31.67;;;;;;;4.73;100.00;101480.23;2014890;71;33267;-76
2021/12/02 16:15:09;;;;;;;37.53;35.03;;;;;;;4.62;100.00;101482.36;2004090;71;32822;-77
2021/12/02 16:20:58;;;;;;;34.23;31.93;;;;;;;4.80;100.00;101477.37;2004357;71;32750;-75
2021/12/02 16:26:39;;;;;;;30.50;28.47;;;;;;;4.76;100.00;101485.26;1991059;71;32891;-76
2021/12/02 16:32:25;;;;;;;28.73;27.00;;;;;;;4.82;100.00;101478.84;2009466;71;32809;-74
2021/12/02 16:38:09;;;;;;;30.37;28.53;;;;;;;4.73;100.00;101485.73;2008405;71;32818;-76
2021/12/02 16:43:53;;;;;;;29.90;28.17;;;;;;;4.74;100.00;101487.95;1995281;71;32741;-74
2021/12/02 16:49:38;;;;;;;33.03;31.07;;;;;;;4.57;100.00;101496.00;2014945;71;32817;-76
2021/12/02 16:55:23;;;;;;;33.47;31.17;;;;;;;4.47;100.00;101488.80;2018409;71;32806;-75
2021/12/02 17:01:08;;;;;;;35.30;33.10;;;;;;;4.25;100.00;101495.28;1991628;71;33261;-76
2021/12/02 17:06:52;;;;;;;36.43;34.07;;;;;;;4.10;100.00;101498.95;2009675;71;33380;-75
2021/12/02 18:05:44;;;;;;;40.57;37.93;;;;;;;3.12;100.00;101562.34;1799695;79;26370;-72
2021/12/02 18:08:14;;;;;;;41.50;38.87;;;;;;;3.47;100.00;101568.25;1811476;79;26361;-74
2021/12/02 18:10:44;;;;;;;41.60;38.97;;;;;;;3.49;100.00;101568.36;1805819;79;26292;-74
2021/12/02 18:13:14;;;;;;;42.13;39.43;;;;;;;3.36;100.00;101562.94;1805972;79;26333;-72
2021/12/02 18:15:44;;;;;;;44.17;41.60;;;;;;;3.32;100.00;101571.31;1805759;79;26294;-74
2021/12/02 18:18:15;;;;;;;43.43;40.63;;;;;;;3.18;100.00;101577.39;1806002;79;26345;-74
2021/12/02 18:20:45;;;;;;;41.33;38.57;;;;;;;3.22;100.00;101576.42;1843265;78;26304;-73
2021/12/02 18:26:30;;;;;;;46.27;43.23;;;;;;;3.17;100.00;101572.11;1856373;75;86432;-75
2021/12/02 18:32:16;;;;;;;44.03;41.17;;;;;;;3.02;100.00;101577.06;1818756;76;85685;-74
2021/12/02 18:38:00;;;;;;;43.47;40.97;;;;;;;2.91;100.00;101576.37;1908797;73;86333;-75
2021/12/02 18:43:44;;;;;;;45.90;42.73;;;;;;;3.01;100.00;101562.48;1897927;74;39599;-80
2021/12/02 18:49:31;;;;;;;43.47;40.80;;;;;;;3.00;100.00;101564.07;1862075;76;86705;-78
2021/12/02 18:55:16;;;;;;;41.90;39.10;;;;;;;3.13;100.00;101566.75;1842910;76;85431;-81
2021/12/02 19:01:01;;;;;;;45.50;42.50;;;;;;;2.85;100.00;101552.54;1904718;72;87138;-81
2021/12/02 19:06:51;;;;;;;46.07;43.07;;;;;;;2.68;100.00;101533.83;1902701;74;39500;-74
2021/12/02 19:30:54;;;;;;;46.80;43.87;;;;;;;2.97;100.00;101553.02;1854239;73;39798;-78
2021/12/02 19:36:38;;;;;;;49.50;45.90;;;;;;;2.97;100.00;101553.02;1814299;76;86225;-77
2021/12/02 19:42:22;;;;;;;44.17;41.07;;;;;;;2.94;100.00;101547.97;1863383;74;86273;-70
2021/12/02 19:48:07;;;;;;;48.63;45.37;;;;;;;2.97;100.00;101549.42;1909758;72;87034;-71
2021/12/02 19:53:51;;;;;;;46.20;43.10;;;;;;;3.11;100.00;101537.33;1894507;74;39510;-73
2021/12/02 19:59:35;;;;;;;50.17;46.57;;;;;;;2.37;100.00;101524.11;1924632;72;86451;-70
2021/12/02 20:05:18;;;;;;;52.07;48.57;;;;;;;2.09;100.00;101516.70;1904918;73;86341;-76
2021/12/02 20:11:03;;;;;;;52.67;49.07;;;;;;;2.18;100.00;101523.09;1915309;72;86381;-79
2021/12/02 20:16:50;;;;;;;49.80;46.50;;;;;;;2.23;100.00;101518.34;1903784;74;39607;-79
2021/12/02 20:25:51;;;;;;;49.00;45.77;;;;;;;2.31;100.00;101503.59;1895090;74;39849;-77
2021/12/02 20:31:36;;;;;;;49.33;45.93;;;;;;;2.26;100.00;101477.66;1830327;75;86932;-78
2021/12/02 20:37:20;;;;;;;48.07;44.77;;;;;;;2.37;100.00;101484.89;1864506;76;87240;-73
2021/12/02 20:43:06;;;;;;;51.57;47.87;;;;;;;2.39;100.00;101475.94;1928222;73;86308;-78
2021/12/02 20:48:55;;;;;;;47.90;44.70;;;;;;;2.40;100.00;101475.70;1911711;74;75909;-71
2021/12/02 20:54:43;;;;;;;51.03;47.60;;;;;;;2.35;100.00;101492.50;1832924;76;85664;-78
2021/12/02 21:03:46;;;;;;;52.37;48.67;;;;;;;2.35;100.00;101472.79;1906210;74;39753;-72
2021/12/02 21:09:29;;;;;;;49.67;46.27;;;;;;;2.56;100.00;101463.42;1920470;74;86632;-79
2021/12/02 21:15:18;;;;;;;51.73;47.80;;;;;;;2.62;100.00;101457.05;1910311;72;86389;-79
2021/12/02 21:21:02;;;;;;;48.43;44.63;;;;;;;2.72;100.00;101472.52;1932336;73;86321;-78
2021/12/02 21:26:51;;;;;;;50.97;47.63;;;;;;;3.00;100.00;101492.72;1850963;73;40154;-79
2021/12/02 21:32:36;;;;;;;51.03;47.63;;;;;;;2.79;100.00;101488.41;1782238;79;86434;-75
2021/12/02 21:38:23;;;;;;;55.10;51.20;;;;;;;2.72;100.00;101482.96;1888333;75;86479;-71
2021/12/02 21:44:12;;;;;;;56.53;52.53;;;;;;;2.69;100.00;101477.92;1912016;72;86198;-78
2021/12/02 21:49:58;;;;;;;55.63;51.70;;;;;;;2.67;100.00;101461.35;1929229;73;85497;-79
2021/12/02 21:55:44;;;;;;;55.13;51.37;;;;;;;2.71;100.00;101434.64;1893532;74;86292;-79
2021/12/02 22:01:43;;;;;;;56.70;53.07;;;;;;;2.52;100.00;101443.83;1895174;74;87208;-75
2021/12/02 22:07:26;;;;;;;54.50;50.90;;;;;;;2.72;100.00;101434.96;1817103;77;86592;-71
2021/12/02 22:13:09;;;;;;;51.17;47.50;;;;;;;2.96;100.00;101450.31;1911741;73;86186;-72
2021/12/02 22:18:53;;;;;;;51.33;48.13;;;;;;;3.04;100.00;101458.28;1983099;71;39499;-77
2021/12/02 22:24:37;;;;;;;49.67;46.60;;;;;;;3.12;100.00;101460.23;1952359;72;86383;-77
2021/12/02 22:30:22;;;;;;;47.67;44.53;;;;;;;3.26;100.00;101461.52;1882647;73;86585;-77
2021/12/02 22:36:07;;;;;;;50.23;46.77;;;;;;;3.08;100.00;101464.48;1937172;72;86239;-78
2021/12/02 22:41:51;;;;;;;50.00;46.43;;;;;;;3.11;100.00;101461.32;1982482;71;39754;-71
2021/12/02 22:47:35;;;;;;;50.03;46.33;;;;;;;3.08;100.00;101451.32;1822120;76;87083;-78
2021/12/02 22:53:21;;;;;;;50.17;46.67;;;;;;;3.14;100.00;101438.06;1898327;74;86286;-70
2021/12/02 22:59:06;;;;;;;49.30;45.90;;;;;;;3.21;100.00;101436.95;1915953;74;86140;-76
2021/12/02 23:04:54;;;;;;;46.77;43.40;;;;;;;3.44;100.00;101423.16;1983553;71;39497;-81
2021/12/02 23:10:40;;;;;;;47.13;43.93;;;;;;;3.54;100.00;101416.10;1827306;76;85285;-78
2021/12/02 23:16:25;;;;;;;46.27;43.07;;;;;;;3.40;100.00;101421.39;1807771;78;86898;-79
2021/12/02 23:22:10;;;;;;;46.67;43.30;;;;;;;3.58;100.00;101409.09;1903679;72;85335;-80
2021/12/02 23:28:08;;;;;;;47.17;43.97;;;;;;;3.45;100.00;101412.48;1978044;71;39805;-78
2021/12/02 23:33:48;;;;;;;44.87;41.87;;;;;;;3.44;100.00;101406.14;1950194;71;39735;-79
2021/12/02 23:39:36;;;;;;;47.70;44.50;;;;;;;3.41;100.00;101410.72;1813786;75;86463;-70
2021/12/02 23:45:20;;;;;;;48.60;45.37;;;;;;;3.36;100.00;101405.06;1913181;73;86603;-71
2021/12/02 23:54:12;;;;;;;45.70;42.80;;;;;;;3.47;100.00;101407.59;1950705;72;86623;-71
2021/12/02 23:56:42;;;;;;;45.90;42.78;;;;;;;3.54;100.00;101409.77;1855703;73;936685;-70
2021/12/02 23:59:12;;;;;;;49.00;45.90;;;;;;;3.50;100.00;101401.14;1903831;73;937639;-70
